Time;durP1;ratioP1;P1;durP2;ratioP2;P2;SDS_P1;SDS_P2;PMS_P1;PMS_P2;Temp;Humidity;BMP_temperature;BMP_pressure;BME280_temperature;BME280_humidity;BME280_pressure;Samples;Min_cycle;Max_cycle;Signal;HPM_P1;HPM_P2
2023/09/22 00:00:28;;;;;;;4.90;3.60;;;15.10;95.40;;;;;;5085028;28;20032;-46
2023/09/22 00:02:55;;;;;;;5.35;3.72;;;15.10;95.40;;;;;;5072435;28;20032;-49
2023/09/22 00:05:25;;;;;;;4.20;3.00;;;15.00;95.40;;;;;;5078102;28;20436;-49
2023/09/22 00:07:52;;;;;;;4.57;2.90;;;15.00;95.40;;;;;;5074795;28;20035;-46
2023/09/22 00:10:19;;;;;;;5.03;3.55;;;15.10;95.30;;;;;;5073436;28;20041;-47
2023/09/22 00:12:46;;;;;;;7.20;3.35;;;15.00;95.30;;;;;;5072201;28;20051;-46
2023/09/22 00:15:20;;;;;;;4.70;3.85;;;15.00;95.30;;;;;;5090652;28;20036;-46
2023/09/22 00:17:47;;;;;;;6.53;5.10;;;14.90;95.20;;;;;;5085184;28;20448;-47
2023/09/22 00:20:15;;;;;;;5.55;4.65;;;14.90;95.10;;;;;;5071025;28;20350;-47
2023/09/22 00:22:43;;;;;;;7.10;5.03;;;14.90;95.20;;;;;;5092469;28;20463;-46
2023/09/22 00:25:12;;;;;;;6.32;5.13;;;14.90;95.10;;;;;;5088972;28;20505;-46
2023/09/22 00:27:42;;;;;;;7.40;6.57;;;14.90;95.10;;;;;;5092095;28;20081;-46
2023/09/22 00:30:09;;;;;;;9.13;7.03;;;14.80;95.10;;;;;;5092076;28;20024;-45
2023/09/22 00:32:35;;;;;;;8.80;7.45;;;14.80;95.10;;;;;;5072743;28;20025;-48
2023/09/22 00:35:01;;;;;;;10.45;8.20;;;14.80;95.10;;;;;;5054274;28;20043;-45
2023/09/22 00:37:28;;;;;;;11.15;9.25;;;14.70;95.00;;;;;;5063646;28;20587;-49
2023/09/22 00:39:55;;;;;;;9.68;8.02;;;14.70;95.00;;;;;;5071878;28;20017;-46
2023/09/22 00:42:23;;;;;;;10.80;8.57;;;14.70;94.90;;;;;;5055891;28;20484;-47
2023/09/22 00:44:50;;;;;;;10.50;8.15;;;14.60;95.00;;;;;;5063284;28;20020;-45
2023/09/22 00:47:17;;;;;;;11.88;8.85;;;14.60;95.00;;;;;;5057009;28;20036;-47
2023/09/22 00:49:48;;;;;;;10.60;8.65;;;14.60;95.00;;;;;;5054750;28;20047;-47
2023/09/22 00:52:18;;;;;;;9.80;8.75;;;14.60;95.00;;;;;;5054676;28;20052;-45
2023/09/22 00:54:49;;;;;;;12.25;8.73;;;14.50;94.90;;;;;;5059731;28;20100;-47
2023/09/22 00:57:20;;;;;;;8.45;7.60;;;14.50;94.90;;;;;;5075491;28;20342;-45
2023/09/22 00:59:55;;;;;;;12.25;9.13;;;14.50;94.80;;;;;;5074189;28;20100;-46
2023/09/22 01:02:25;;;;;;;9.43;8.00;;;14.40;94.80;;;;;;5075187;28;20427;-46
2023/09/22 01:04:56;;;;;;;12.05;7.65;;;14.40;94.80;;;;;;5060917;28;20025;-47
2023/09/22 01:07:24;;;;;;;9.95;7.65;;;14.40;94.80;;;;;;5056491;28;20040;-51
2023/09/22 01:09:50;;;;;;;12.85;8.45;;;14.40;94.80;;;;;;5055370;28;20106;-47
2023/09/22 01:12:18;;;;;;;9.95;8.57;;;14.40;94.80;;;;;;5054667;28;20047;-44
2023/09/22 01:14:44;;;;;;;9.10;8.05;;;14.40;94.70;;;;;;5061857;28;20024;-48
2023/09/22 01:17:13;;;;;;;10.02;8.40;;;14.30;94.70;;;;;;5074424;28;20103;-46
2023/09/22 01:19:42;;;;;;;10.48;8.10;;;14.30;94.90;;;;;;5054888;28;20499;-47
2023/09/22 01:22:11;;;;;;;12.23;9.10;;;14.30;94.90;;;;;;5055450;28;20044;-48
2023/09/22 01:24:40;;;;;;;11.40;8.45;;;14.30;94.80;;;;;;5059156;28;20440;-45
2023/09/22 01:27:08;;;;;;;10.70;8.65;;;14.20;94.80;;;;;;5070580;28;20041;-48
2023/09/22 01:29:35;;;;;;;9.57;8.07;;;14.20;94.70;;;;;;5056409;28;20024;-46
2023/09/22 01:32:02;;;;;;;8.75;7.32;;;14.20;94.80;;;;;;5054723;28;20442;-45
2023/09/22 01:34:30;;;;;;;14.70;7.75;;;14.10;94.70;;;;;;5054603;28;20041;-46
2023/09/22 01:36:58;;;;;;;7.72;6.38;;;14.10;94.70;;;;;;5057980;28;20419;-48
2023/09/22 01:39:24;;;;;;;11.02;7.30;;;14.10;94.80;;;;;;5074380;28;20056;-46
2023/09/22 01:41:52;;;;;;;10.70;7.05;;;14.10;94.80;;;;;;5073570;28;20398;-47
2023/09/22 01:44:22;;;;;;;8.88;6.90;;;14.10;94.70;;;;;;5073131;28;20024;-46
2023/09/22 01:46:53;;;;;;;7.90;6.57;;;14.00;94.80;;;;;;5070333;28;20086;-47
2023/09/22 01:49:19;;;;;;;9.32;6.68;;;14.10;94.80;;;;;;5074763;28;20031;-46
2023/09/22 01:51:46;;;;;;;8.38;7.38;;;14.00;94.70;;;;;;5089931;28;20025;-46
2023/09/22 01:54:12;;;;;;;9.90;7.57;;;14.00;94.70;;;;;;5059640;28;20110;-46
2023/09/22 01:56:41;;;;;;;9.20;7.75;;;14.00;94.70;;;;;;5072716;28;20024;-45
2023/09/22 01:59:09;;;;;;;7.83;7.03;;;14.00;94.70;;;;;;5072971;28;20025;-47
2023/09/22 02:01:36;;;;;;;7.70;6.90;;;14.00;94.80;;;;;;5054934;28;20264;-47
2023/09/22 02:04:03;;;;;;;8.20;7.22;;;14.00;94.80;;;;;;5053106;28;20040;-46
2023/09/22 02:06:31;;;;;;;9.88;7.18;;;14.00;94.70;;;;;;5055527;28;20039;-46
2023/09/22 02:09:00;;;;;;;8.43;6.72;;;14.00;94.80;;;;;;5065284;28;20029;-47
2023/09/22 02:11:26;;;;;;;7.40;6.57;;;14.10;94.90;;;;;;5054534;28;20025;-45
2023/09/22 02:13:55;;;;;;;9.13;7.22;;;14.20;94.90;;;;;;5055095;28;20291;-45
2023/09/22 02:16:22;;;;;;;9.18;7.72;;;14.10;94.90;;;;;;5073936;28;20028;-44
2023/09/22 02:18:51;;;;;;;8.73;7.80;;;14.10;94.80;;;;;;5074103;28;20476;-44
2023/09/22 02:21:18;;;;;;;10.88;7.47;;;14.10;94.80;;;;;;5060139;28;20083;-45
2023/09/22 02:23:45;;;;;;;9.55;7.65;;;14.10;94.90;;;;;;5054018;28;20032;-45
2023/09/22 02:26:13;;;;;;;11.05;8.63;;;14.20;94.90;;;;;;5064133;28;20021;-45
2023/09/22 02:28:40;;;;;;;9.93;7.90;;;14.20;94.90;;;;;;5054012;28;20056;-43
2023/09/22 02:31:08;;;;;;;10.57;7.82;;;14.10;94.80;;;;;;5055472;28;20029;-45
2023/09/22 02:33:35;;;;;;;12.05;8.27;;;14.10;94.80;;;;;;5053474;28;20033;-45
2023/09/22 02:36:08;;;;;;;11.27;9.02;;;14.10;94.90;;;;;;5053580;28;20032;-44
2023/09/22 02:38:35;;;;;;;10.65;8.75;;;14.10;94.90;;;;;;5037800;28;20685;-45
2023/09/22 02:41:02;;;;;;;10.05;8.85;;;14.10;94.90;;;;;;5033734;28;20072;-44
2023/09/22 02:43:28;;;;;;;9.73;8.23;;;14.00;94.90;;;;;;5033744;28;20018;-46
2023/09/22 02:45:54;;;;;;;13.57;8.65;;;14.10;95.00;;;;;;5046823;28;20029;-45
2023/09/22 02:48:24;;;;;;;10.75;8.55;;;14.10;95.00;;;;;;5053567;28;20036;-47
2023/09/22 02:50:55;;;;;;;12.15;9.77;;;14.00;94.90;;;;;;5033874;28;20459;-45
2023/09/22 02:53:22;;;;;;;12.32;8.88;;;14.00;94.90;;;;;;5033391;28;20025;-45
2023/09/22 02:55:50;;;;;;;9.80;7.90;;;14.00;95.00;;;;;;5045192;28;20056;-48
2023/09/22 02:58:18;;;;;;;11.57;9.40;;;14.00;95.10;;;;;;5039234;28;20045;-45
2023/09/22 03:00:46;;;;;;;11.50;8.48;;;14.00;95.20;;;;;;5041916;28;20041;-45
2023/09/22 03:03:15;;;;;;;11.27;8.90;;;14.00;95.20;;;;;;5053365;28;20061;-45
2023/09/22 03:05:41;;;;;;;9.70;8.68;;;14.10;95.20;;;;;;5038288;28;20041;-45
2023/09/22 03:08:08;;;;;;;12.88;9.50;;;14.10;95.30;;;;;;5048052;28;20461;-48
2023/09/22 03:10:35;;;;;;;9.18;7.72;;;14.10;95.30;;;;;;5052711;28;20083;-46
2023/09/22 03:13:03;;;;;;;13.65;9.00;;;14.10;95.30;;;;;;5052955;28;20108;-45
2023/09/22 03:15:30;;;;;;;10.88;8.48;;;14.20;95.20;;;;;;5052417;28;20048;-44
2023/09/22 03:17:57;;;;;;;12.32;8.05;;;14.10;95.30;;;;;;5052843;28;20060;-46
2023/09/22 03:20:26;;;;;;;10.07;7.68;;;14.20;95.20;;;;;;5052997;28;20104;-49
2023/09/22 03:22:53;;;;;;;10.30;8.15;;;14.10;95.20;;;;;;5043728;28;20469;-48
2023/09/22 03:25:22;;;;;;;12.20;7.97;;;14.10;95.20;;;;;;5034917;28;20052;-51
2023/09/22 03:27:50;;;;;;;9.15;7.03;;;14.10;95.20;;;;;;5052025;28;20100;-52
2023/09/22 03:30:17;;;;;;;9.30;7.95;;;14.10;95.30;;;;;;5052110;28;20029;-53
2023/09/22 03:32:46;;;;;;;10.07;8.82;;;14.10;95.30;;;;;;5051809;28;20033;-50
2023/09/22 03:35:15;;;;;;;13.20;8.55;;;14.20;95.40;;;;;;5051413;28;20041;-53
2023/09/22 03:37:41;;;;;;;9.57;8.23;;;14.20;95.50;;;;;;5068175;28;20116;-54
2023/09/22 03:40:22;;;;;;;10.77;8.18;;;14.20;95.60;;;;;;5052515;28;20108;-48
2023/09/22 03:42:50;;;;;;;11.15;9.20;;;14.30;95.60;;;;;;5052835;28;20454;-52
2023/09/22 03:45:18;;;;;;;11.63;9.85;;;14.30;95.60;;;;;;5051992;28;20036;-55
2023/09/22 03:47:46;;;;;;;13.70;10.15;;;14.30;95.50;;;;;;5050946;28;20029;-53
2023/09/22 03:50:17;;;;;;;12.77;9.65;;;14.30;95.60;;;;;;5043825;28;20475;-51
2023/09/22 03:52:45;;;;;;;13.52;9.57;;;14.40;95.70;;;;;;5032531;28;20034;-51
2023/09/22 03:55:13;;;;;;;11.85;9.82;;;14.40;95.70;;;;;;5014973;28;20367;-52
2023/09/22 03:57:42;;;;;;;10.68;8.77;;;14.40;95.70;;;;;;5051682;28;20029;-51
2023/09/22 04:00:21;;;;;;;12.60;10.90;;;14.40;95.60;;;;;;5052316;28;20032;-50
2023/09/22 04:02:49;;;;;;;11.95;10.68;;;14.40;95.60;;;;;;5044143;28;20503;-51
2023/09/22 04:05:17;;;;;;;14.20;10.98;;;14.30;95.50;;;;;;5054821;28;20108;-53
2023/09/22 04:07:45;;;;;;;10.75;9.43;;;14.40;95.60;;;;;;5052221;28;20033;-51
2023/09/22 04:10:13;;;;;;;11.82;10.40;;;14.40;95.60;;;;;;5053602;28;20112;-49
2023/09/22 04:12:39;;;;;;;14.60;11.80;;;14.40;95.60;;;;;;5055911;28;20105;-48
2023/09/22 04:15:08;;;;;;;12.20;10.55;;;14.40;95.60;;;;;;5056355;28;20476;-52
2023/09/22 04:17:36;;;;;;;14.60;11.77;;;14.40;95.50;;;;;;5056035;28;20033;-47
2023/09/22 04:20:07;;;;;;;13.15;11.68;;;14.40;95.50;;;;;;5038273;28;20113;-49
2023/09/22 04:22:38;;;;;;;16.88;10.85;;;14.40;95.50;;;;;;5052354;28;20464;-51
2023/09/22 04:25:19;;;;;;;14.10;12.65;;;14.40;95.60;;;;;;5056510;28;20421;-46
2023/09/22 04:27:54;;;;;;;13.70;12.10;;;14.40;95.50;;;;;;5035973;28;20501;-49
2023/09/22 04:30:25;;;;;;;15.75;12.40;;;14.40;95.50;;;;;;5036347;28;20045;-47
2023/09/22 04:32:53;;;;;;;14.27;11.63;;;14.40;95.50;;;;;;5054512;28;20033;-51
2023/09/22 04:35:20;;;;;;;16.33;12.50;;;14.40;95.50;;;;;;5056341;28;20094;-46
2023/09/22 04:37:49;;;;;;;14.18;12.38;;;14.40;95.50;;;;;;5068347;28;20045;-49
2023/09/22 04:40:29;;;;;;;14.45;12.20;;;14.40;95.50;;;;;;5075776;28;20043;-47
2023/09/22 04:42:56;;;;;;;17.65;13.35;;;14.40;95.50;;;;;;5092855;28;20032;-46
2023/09/22 04:45:23;;;;;;;17.88;13.88;;;14.40;95.50;;;;;;5087070;28;20025;-48
2023/09/22 04:47:53;;;;;;;16.80;12.27;;;14.30;95.50;;;;;;5090194;28;20087;-46
2023/09/22 04:50:21;;;;;;;16.67;14.48;;;14.40;95.50;;;;;;5095883;28;20089;-48
2023/09/22 04:52:53;;;;;;;22.27;14.98;;;14.40;95.50;;;;;;5078165;28;20499;-46
2023/09/22 04:55:20;;;;;;;16.50;14.25;;;14.40;95.50;;;;;;5089473;28;20032;-48
2023/09/22 04:57:48;;;;;;;19.48;14.52;;;14.40;95.60;;;;;;5095489;28;20483;-48
2023/09/22 05:00:24;;;;;;;18.92;15.45;;;14.40;95.40;;;;;;5093813;28;20126;-47
2023/09/22 05:03:04;;;;;;;17.95;14.90;;;14.40;95.40;;;;;;5061843;28;20032;-46
2023/09/22 05:05:39;;;;;;;21.33;17.33;;;14.40;95.50;;;;;;5058433;28;20508;-47
2023/09/22 05:08:06;;;;;;;18.05;16.13;;;14.30;95.40;;;;;;5075329;28;20035;-45
2023/09/22 05:10:33;;;;;;;19.35;14.77;;;14.40;95.60;;;;;;5075951;28;20588;-46
2023/09/22 05:12:59;;;;;;;23.08;18.02;;;14.40;95.60;;;;;;5089107;28;20035;-45
2023/09/22 05:15:25;;;;;;;22.27;17.35;;;14.40;95.60;;;;;;5095640;28;20408;-47
2023/09/22 05:17:55;;;;;;;19.63;16.10;;;14.40;95.60;;;;;;5086220;28;20028;-45
2023/09/22 05:20:24;;;;;;;20.27;15.73;;;14.40;95.60;;;;;;5077736;28;20437;-46
2023/09/22 05:22:51;;;;;;;20.63;16.95;;;14.40;95.60;;;;;;5075011;28;20036;-45
2023/09/22 05:25:18;;;;;;;21.35;18.13;;;14.40;95.60;;;;;;5089663;28;20039;-47
2023/09/22 05:27:47;;;;;;;23.58;17.88;;;14.40;95.50;;;;;;5082392;28;20401;-49
2023/09/22 05:30:14;;;;;;;23.27;17.30;;;14.40;95.60;;;;;;5074867;28;20098;-47
2023/09/22 05:32:42;;;;;;;21.17;17.27;;;14.40;95.60;;;;;;5063918;28;20020;-45
2023/09/22 05:35:10;;;;;;;22.02;18.48;;;14.50;95.60;;;;;;5095261;28;20051;-45
2023/09/22 05:37:38;;;;;;;22.40;18.75;;;14.40;95.50;;;;;;5094283;28;20044;-44
2023/09/22 05:40:10;;;;;;;25.35;20.90;;;14.50;95.50;;;;;;5077395;28;20091;-48
2023/09/22 05:42:36;;;;;;;24.55;18.42;;;14.50;95.50;;;;;;5094654;28;20023;-46
2023/09/22 05:45:07;;;;;;;22.73;19.17;;;14.50;95.50;;;;;;5094875;28;20032;-46
2023/09/22 05:47:36;;;;;;;21.38;18.00;;;14.50;95.50;;;;;;5076255;28;20453;-45
2023/09/22 05:50:05;;;;;;;26.33;21.35;;;14.50;95.50;;;;;;5074665;28;20425;-46
2023/09/22 05:52:34;;;;;;;24.10;19.87;;;14.50;95.50;;;;;;5074495;28;20024;-45
2023/09/22 05:55:01;;;;;;;25.48;20.58;;;14.50;95.50;;;;;;5082352;28;20266;-44
2023/09/22 05:57:33;;;;;;;24.70;21.13;;;14.50;95.40;;;;;;5075453;28;20062;-46
2023/09/22 06:00:06;;;;;;;25.00;22.30;;;14.50;95.40;;;;;;5074030;28;20030;-44
2023/09/22 06:02:34;;;;;;;26.48;20.98;;;14.50;95.50;;;;;;5075057;28;20020;-45
2023/09/22 06:05:01;;;;;;;27.23;21.10;;;14.50;95.40;;;;;;5094224;28;20024;-46
2023/09/22 06:07:31;;;;;;;26.52;21.38;;;14.50;95.40;;;;;;5093448;28;20028;-46
2023/09/22 06:10:04;;;;;;;28.40;20.65;;;14.50;95.40;;;;;;5090401;28;20020;-49
2023/09/22 06:12:31;;;;;;;25.35;20.65;;;14.50;95.40;;;;;;5075680;28;20090;-43
2023/09/22 06:14:59;;;;;;;23.95;20.10;;;14.50;95.30;;;;;;5094419;28;20107;-45
2023/09/22 06:17:26;;;;;;;27.25;21.25;;;14.50;95.40;;;;;;5074407;28;20024;-44
2023/09/22 06:19:52;;;;;;;22.90;19.77;;;14.50;95.40;;;;;;5093203;28;20024;-43
2023/09/22 06:22:18;;;;;;;18.80;16.58;;;14.60;95.30;;;;;;5094134;28;20119;-44
2023/09/22 06:24:45;;;;;;;23.42;18.95;;;14.50;95.30;;;;;;5075200;28;20112;-45
2023/09/22 06:27:12;;;;;;;23.73;18.77;;;14.60;95.20;;;;;;5056267;28;20503;-43
2023/09/22 06:29:39;;;;;;;26.45;20.13;;;14.60;95.20;;;;;;5075859;28;20454;-45
2023/09/22 06:32:07;;;;;;;24.65;18.02;;;14.60;95.10;;;;;;5072915;28;20426;-44
2023/09/22 06:34:35;;;;;;;27.08;18.42;;;14.60;95.10;;;;;;5075222;28;20350;-48
2023/09/22 06:37:06;;;;;;;21.92;18.63;;;14.60;95.00;;;;;;5072913;28;20477;-43
2023/09/22 06:39:32;;;;;;;23.13;17.77;;;14.60;95.00;;;;;;5056116;28;20048;-46
2023/09/22 06:42:02;;;;;;;23.08;17.73;;;14.70;95.10;;;;;;5074186;28;20032;-44
2023/09/22 06:44:28;;;;;;;18.33;16.42;;;14.80;94.90;;;;;;5073285;28;20469;-45
2023/09/22 06:46:55;;;;;;;23.88;16.73;;;14.80;94.80;;;;;;5074032;28;20063;-45
2023/09/22 06:49:24;;;;;;;19.08;14.90;;;14.80;94.70;;;;;;5083644;28;20035;-44
2023/09/22 06:51:51;;;;;;;18.27;15.60;;;14.80;94.50;;;;;;5081187;28;20043;-45
2023/09/22 06:54:21;;;;;;;18.33;15.60;;;14.70;94.40;;;;;;5056033;28;20024;-47
2023/09/22 06:56:46;;;;;;;18.98;15.00;;;14.70;94.10;;;;;;5073069;28;20020;-45
2023/09/22 06:59:14;;;;;;;16.65;14.18;;;14.60;93.90;;;;;;5082193;28;20369;-44
2023/09/22 07:01:40;;;;;;;17.45;14.10;;;14.60;93.90;;;;;;5076655;28;20455;-46
2023/09/22 07:04:10;;;;;;;16.10;14.18;;;14.60;93.70;;;;;;5079492;28;20024;-42
2023/09/22 07:06:39;;;;;;;17.13;14.68;;;14.60;93.70;;;;;;5093167;28;20050;-44
2023/09/22 07:09:11;;;;;;;16.55;14.77;;;14.60;93.50;;;;;;5092943;28;20019;-45
2023/09/22 07:11:40;;;;;;;18.65;13.82;;;14.60;93.50;;;;;;5086556;28;20047;-44
2023/09/22 07:14:09;;;;;;;17.55;13.43;;;14.70;93.30;;;;;;5093515;28;20035;-45
2023/09/22 07:16:36;;;;;;;14.27;12.52;;;14.70;93.40;;;;;;5093302;28;20048;-44
2023/09/22 07:19:02;;;;;;;17.92;15.38;;;14.70;93.30;;;;;;5072796;28;20314;-46
2023/09/22 07:21:29;;;;;;;16.77;14.05;;;14.70;93.30;;;;;;5091949;28;20024;-44
2023/09/22 07:23:56;;;;;;;15.80;13.90;;;14.70;93.40;;;;;;5092922;28;20016;-47
2023/09/22 07:26:23;;;;;;;15.82;13.38;;;14.80;93.30;;;;;;5072101;28;20655;-44
2023/09/22 07:28:50;;;;;;;16.98;14.10;;;14.90;93.20;;;;;;5066827;28;20032;-47
2023/09/22 07:31:28;;;;;;;16.73;15.02;;;14.90;93.20;;;;;;5075169;28;20061;-48
2023/09/22 07:33:55;;;;;;;18.33;15.27;;;14.90;93.00;;;;;;5092886;28;20138;-46
2023/09/22 07:36:22;;;;;;;16.35;14.52;;;14.90;92.70;;;;;;5079097;28;20033;-47
2023/09/22 07:38:48;;;;;;;15.82;13.63;;;14.90;92.80;;;;;;5054890;28;20462;-46
2023/09/22 07:41:17;;;;;;;17.27;15.27;;;14.90;92.90;;;;;;5072667;28;20028;-43
2023/09/22 07:43:46;;;;;;;16.88;14.32;;;15.00;92.90;;;;;;5072186;28;20044;-46
2023/09/22 07:46:13;;;;;;;16.30;14.55;;;15.10;93.00;;;;;;5080981;28;20020;-44
2023/09/22 07:48:39;;;;;;;18.88;15.15;;;15.10;92.70;;;;;;5093061;28;20086;-47
2023/09/22 07:51:07;;;;;;;15.50;13.90;;;15.40;92.80;;;;;;5092575;28;20038;-50
2023/09/22 07:53:34;;;;;;;16.75;14.93;;;15.60;92.60;;;;;;5092649;28;20068;-47
2023/09/22 07:56:00;;;;;;;17.33;13.45;;;15.90;92.70;;;;;;5075532;28;20039;-46
2023/09/22 07:58:27;;;;;;;17.02;15.20;;;16.30;92.20;;;;;;5080349;28;20456;-48
2023/09/22 08:00:59;;;;;;;18.50;15.32;;;16.40;91.00;;;;;;5055411;28;20511;-54
2023/09/22 08:03:26;;;;;;;17.98;15.95;;;16.40;89.20;;;;;;5072320;28;20040;-49
2023/09/22 08:05:54;;;;;;;16.20;14.52;;;16.20;88.50;;;;;;5073395;28;20032;-52
2023/09/22 08:08:21;;;;;;;16.38;14.77;;;16.20;88.90;;;;;;5091845;28;20027;-53
2023/09/22 08:10:48;;;;;;;16.67;14.93;;;16.10;88.60;;;;;;5088698;28;20028;-51
2023/09/22 08:13:21;;;;;;;15.40;13.90;;;16.10;88.80;;;;;;5092537;28;20111;-52
2023/09/22 08:15:48;;;;;;;16.08;14.48;;;16.10;88.40;;;;;;5092878;28;20086;-52
2023/09/22 08:18:16;;;;;;;15.85;14.25;;;16.00;88.20;;;;;;5091250;28;20107;-50
2023/09/22 08:20:44;;;;;;;18.55;16.60;;;15.90;87.60;;;;;;5073657;28;20175;-52
2023/09/22 08:23:12;;;;;;;17.25;15.55;;;15.90;88.10;;;;;;5072631;28;20404;-53
2023/09/22 08:25:38;;;;;;;16.75;14.95;;;16.10;88.80;;;;;;5072676;28;20438;-53
2023/09/22 08:28:12;;;;;;;16.27;14.73;;;16.10;87.80;;;;;;5072185;28;20024;-51
2023/09/22 08:30:41;;;;;;;17.60;15.60;;;16.00;87.80;;;;;;5081242;28;20524;-52
2023/09/22 08:33:08;;;;;;;17.77;15.73;;;15.90;87.60;;;;;;5075242;28;20051;-54
2023/09/22 08:35:36;;;;;;;18.10;16.17;;;15.90;88.00;;;;;;5074869;28;20048;-55
2023/09/22 08:38:04;;;;;;;17.17;15.35;;;16.20;88.60;;;;;;5092195;28;20048;-54
2023/09/22 08:40:33;;;;;;;17.13;15.25;;;16.50;89.10;;;;;;5080827;28;20033;-53
2023/09/22 08:43:02;;;;;;;17.48;15.80;;;17.00;88.80;;;;;;5085419;28;20039;-51
2023/09/22 08:45:32;;;;;;;15.50;13.85;;;17.40;87.40;;;;;;5092603;28;20505;-56
2023/09/22 08:47:59;;;;;;;15.13;13.63;;;17.50;85.80;;;;;;5078856;28;20071;-55
2023/09/22 08:50:26;;;;;;;15.75;14.10;;;17.40;84.60;;;;;;5073877;28;20032;-55
2023/09/22 08:52:54;;;;;;;13.43;11.55;;;17.10;84.40;;;;;;5090849;28;20058;-52
2023/09/22 08:55:25;;;;;;;13.32;10.73;;;16.80;84.30;;;;;;5080234;28;20081;-54
2023/09/22 08:58:05;;;;;;;12.18;10.63;;;16.80;86.10;;;;;;5074678;28;20090;-54
2023/09/22 09:00:33;;;;;;;13.75;10.63;;;16.70;84.60;;;;;;5086499;28;20024;-55
2023/09/22 09:03:11;;;;;;;10.02;9.02;;;16.70;85.00;;;;;;5095615;28;20031;-53
2023/09/22 09:05:40;;;;;;;12.38;9.40;;;16.50;84.40;;;;;;5064896;28;20056;-55
2023/09/22 09:08:27;;;;;;;12.95;10.82;;;16.50;84.40;;;;;;5094433;28;20032;-56
2023/09/22 09:10:54;;;;;;;12.93;9.95;;;16.40;85.10;;;;;;5087929;28;20108;-56
2023/09/22 09:13:27;;;;;;;12.15;9.85;;;16.50;85.70;;;;;;5075106;28;20028;-56
2023/09/22 09:16:12;;;;;;;15.10;8.85;;;16.60;85.50;;;;;;5074168;28;20037;-51
2023/09/22 09:18:39;;;;;;;13.40;8.80;;;16.90;85.50;;;;;;5075463;28;20081;-54
2023/09/22 09:21:16;;;;;;;12.80;7.60;;;17.20;85.10;;;;;;5083057;28;20031;-53
2023/09/22 09:23:59;;;;;;;9.98;8.63;;;17.40;84.20;;;;;;5075419;28;20028;-54
2023/09/22 09:26:44;;;;;;;8.57;7.70;;;17.90;84.00;;;;;;5058843;28;20028;-55
2023/09/22 09:29:11;;;;;;;9.57;7.47;;;18.20;82.40;;;;;;5075142;28;20028;-56
2023/09/22 09:32:00;;;;;;;10.23;6.45;;;17.90;82.10;;;;;;5085985;28;20036;-55
2023/09/22 09:34:49;;;;;;;13.88;6.15;;;18.20;82.10;;;;;;5074331;28;20032;-52
2023/09/22 09:37:14;;;;;;;9.82;5.95;;;18.40;81.50;;;;;;5073973;28;20048;-55
2023/09/22 09:39:58;;;;;;;7.45;4.50;;;18.30;79.60;;;;;;5077174;28;20089;-50
2023/09/22 09:42:33;;;;;;;7.40;5.28;;;18.20;79.80;;;;;;5087504;28;20032;-54
2023/09/22 09:45:03;;;;;;;9.43;5.13;;;17.80;79.00;;;;;;5040723;28;20029;-54
2023/09/22 09:47:34;;;;;;;10.07;4.82;;;17.60;80.60;;;;;;5088526;28;20056;-50
2023/09/22 09:50:04;;;;;;;8.63;5.15;;;17.50;80.60;;;;;;5072733;28;20031;-54
2023/09/22 09:53:05;;;;;;;10.65;4.53;;;17.40;82.10;;;;;;5091908;28;20028;-52
2023/09/22 09:55:35;;;;;;;9.30;5.22;;;17.40;82.00;;;;;;5094073;28;20066;-52
2023/09/22 09:58:04;;;;;;;8.10;5.10;;;17.30;81.80;;;;;;5093735;28;20126;-53
2023/09/22 10:00:35;;;;;;;6.88;4.95;;;17.30;82.20;;;;;;5076540;28;20032;-55
2023/09/22 10:03:06;;;;;;;8.60;5.90;;;17.30;81.90;;;;;;5074042;28;20033;-53
2023/09/22 10:05:35;;;;;;;7.90;4.63;;;17.30;83.10;;;;;;5073113;28;20048;-53
2023/09/22 10:08:06;;;;;;;8.53;5.73;;;17.40;82.40;;;;;;5059364;28;20038;-55
2023/09/22 10:10:38;;;;;;;8.45;5.00;;;17.40;83.00;;;;;;5083854;28;20344;-54
2023/09/22 10:13:07;;;;;;;7.80;5.15;;;17.40;80.50;;;;;;5057248;28;20384;-55
2023/09/22 10:16:10;;;;;;;9.37;5.47;;;17.10;81.80;;;;;;5074175;28;20058;-50
2023/09/22 10:19:05;;;;;;;7.28;5.13;;;16.90;81.70;;;;;;5074029;28;20051;-52
2023/09/22 10:21:51;;;;;;;11.15;6.47;;;16.60;83.00;;;;;;5079259;28;20040;-54
2023/09/22 10:24:33;;;;;;;12.15;5.97;;;16.40;83.80;;;;;;5093960;28;20050;-53
2023/09/22 10:27:30;;;;;;;10.13;6.53;;;16.50;84.40;;;;;;5058678;28;20047;-51
2023/09/22 10:29:59;;;;;;;10.82;7.05;;;16.80;85.20;;;;;;5080781;28;20024;-52
2023/09/22 10:32:28;;;;;;;10.23;6.35;;;16.90;83.80;;;;;;5073935;28;20437;-55
2023/09/22 10:35:09;;;;;;;14.00;6.93;;;16.90;83.10;;;;;;5080468;28;20031;-54
2023/09/22 10:37:38;;;;;;;8.52;7.03;;;17.00;83.10;;;;;;5093290;28;20052;-53
2023/09/22 10:40:19;;;;;;;9.88;7.15;;;17.40;84.20;;;;;;5094598;28;20843;-52
2023/09/22 10:42:55;;;;;;;10.88;6.85;;;17.70;82.90;;;;;;5088017;28;20028;-56
2023/09/22 10:45:30;;;;;;;8.13;5.90;;;17.90;82.00;;;;;;5089464;28;20028;-55
2023/09/22 10:48:05;;;;;;;7.88;5.35;;;17.90;80.90;;;;;;5072853;28;20416;-54
2023/09/22 10:50:33;;;;;;;9.90;5.25;;;17.90;80.80;;;;;;5073661;28;20454;-52
2023/09/22 10:53:03;;;;;;;8.48;4.95;;;18.10;80.70;;;;;;5086382;28;20035;-55
2023/09/22 10:55:44;;;;;;;;;;;18.00;78.60;;;;;;5072353;28;20025;-54
2023/09/22 10:58:29;;;;;;;7.35;4.93;;;18.10;79.40;;;;;;5073601;28;19912;-51
2023/09/22 11:01:16;;;;;;;6.95;3.88;;;18.00;78.30;;;;;;5055535;28;20119;-52
2023/09/22 11:04:04;;;;;;;8.35;3.70;;;18.10;78.90;;;;;;5073221;28;20032;-55
2023/09/22 11:06:44;;;;;;;5.55;2.65;;;18.00;78.70;;;;;;5073643;28;20033;-52
2023/09/22 11:09:14;;;;;;;5.10;3.20;;;17.90;77.60;;;;;;5087256;28;20389;-51
2023/09/22 11:11:45;;;;;;;6.97;3.63;;;17.90;76.00;;;;;;5073118;28;20357;-56
2023/09/22 11:14:20;;;;;;;5.38;3.78;;;17.90;76.20;;;;;;5056311;28;20039;-53
2023/09/22 11:16:49;;;;;;;5.97;3.50;;;17.80;77.00;;;;;;5072319;28;20032;-53
2023/09/22 11:19:24;;;;;;;7.60;3.17;;;18.00;77.30;;;;;;5072736;28;20038;-52
2023/09/22 11:21:49;;;;;;;5.55;3.63;;;18.30;78.10;;;;;;5073146;28;20063;-54
2023/09/22 11:24:17;;;;;;;5.47;3.58;;;18.50;76.50;;;;;;5074047;28;20135;-54
2023/09/22 11:26:44;;;;;;;4.68;2.03;;;18.50;74.90;;;;;;5072051;28;20036;-55
2023/09/22 11:29:13;;;;;;;5.60;3.00;;;18.70;75.70;;;;;;5069184;28;20040;-54
2023/09/22 11:31:50;;;;;;;3.20;1.92;;;18.90;74.60;;;;;;5072912;28;20107;-54
2023/09/22 11:34:20;;;;;;;6.38;2.65;;;18.80;74.60;;;;;;5072422;28;20111;-53
2023/09/22 11:37:06;;;;;;;5.63;2.50;;;18.90;75.10;;;;;;5093120;28;20035;-53
2023/09/22 11:39:36;;;;;;;5.38;2.33;;;19.00;72.70;;;;;;5052229;28;20595;-52
2023/09/22 11:42:04;;;;;;;8.13;3.20;;;18.90;73.00;;;;;;5050350;28;20041;-56
2023/09/22 11:44:29;;;;;;;4.32;2.55;;;18.90;72.60;;;;;;5037431;28;20020;-52
2023/09/22 11:47:01;;;;;;;5.20;2.45;;;18.90;73.00;;;;;;5044894;28;20033;-52
2023/09/22 11:49:36;;;;;;;5.78;2.72;;;18.90;72.50;;;;;;5032697;28;20025;-49
2023/09/22 11:52:08;;;;;;;8.60;2.63;;;18.90;73.60;;;;;;5032803;28;20105;-54
2023/09/22 11:54:36;;;;;;;4.30;2.55;;;18.90;73.10;;;;;;5033067;28;20087;-55
2023/09/22 11:57:04;;;;;;;4.75;2.10;;;18.60;73.90;;;;;;5031102;28;20148;-51
2023/09/22 11:59:34;;;;;;;5.18;2.75;;;18.40;73.70;;;;;;5032609;28;20079;-49
2023/09/22 12:02:13;;;;;;;4.65;2.45;;;18.30;74.60;;;;;;5033234;28;20088;-51
2023/09/22 12:04:42;;;;;;;6.28;2.13;;;18.30;74.70;;;;;;5050351;28;20029;-52
2023/09/22 12:07:09;;;;;;;5.72;1.90;;;18.10;74.70;;;;;;5052008;28;20025;-54
2023/09/22 12:09:36;;;;;;;6.03;1.90;;;18.30;75.40;;;;;;5052181;28;20033;-48
2023/09/22 12:12:01;;;;;;;3.55;1.60;;;18.40;74.30;;;;;;5052451;28;20036;-52
2023/09/22 12:14:29;;;;;;;5.28;2.55;;;18.50;74.00;;;;;;5044966;28;20029;-54
2023/09/22 12:17:01;;;;;;;4.97;2.05;;;18.60;74.30;;;;;;5038944;28;20033;-52
2023/09/22 12:19:28;;;;;;;4.18;1.90;;;18.70;74.70;;;;;;5052482;28;20036;-54
2023/09/22 12:21:54;;;;;;;2.95;1.50;;;18.80;74.00;;;;;;5036034;28;20040;-52
2023/09/22 12:24:20;;;;;;;6.20;1.85;;;18.90;73.90;;;;;;5044064;28;20037;-54
2023/09/22 12:26:46;;;;;;;4.85;2.72;;;18.80;73.30;;;;;;5052121;28;20617;-57
2023/09/22 12:29:13;;;;;;;3.45;1.60;;;18.90;72.80;;;;;;5051286;28;20104;-52
2023/09/22 12:31:41;;;;;;;4.80;2.35;;;18.90;74.20;;;;;;5054846;28;20029;-56
2023/09/22 12:34:09;;;;;;;5.50;1.98;;;19.00;74.40;;;;;;5055694;28;20034;-54
2023/09/22 12:36:36;;;;;;;3.70;1.70;;;18.90;70.50;;;;;;5051774;28;20615;-55
2023/09/22 12:39:03;;;;;;;5.15;1.33;;;18.90;71.10;;;;;;5074898;28;20051;-56
2023/09/22 12:41:32;;;;;;;3.05;1.05;;;18.90;71.00;;;;;;5082500;28;20111;-51
2023/09/22 12:44:00;;;;;;;3.15;0.90;;;18.70;71.20;;;;;;5076102;28;20101;-56
2023/09/22 12:46:26;;;;;;;1.92;0.98;;;18.50;68.80;;;;;;5075858;28;20024;-53
2023/09/22 12:48:57;;;;;;;3.38;1.27;;;18.40;68.50;;;;;;5074840;28;20028;-52
2023/09/22 12:51:26;;;;;;;4.28;0.90;;;18.40;68.80;;;;;;5090990;28;20043;-56